createdAt,value
2019-04-26T00:02:32.644Z,65.46
2019-04-26T00:05:00.369Z,65.48
2019-04-26T00:07:27.671Z,65.51
2019-04-26T00:09:56.427Z,65.71
2019-04-26T00:12:43.234Z,66.62
2019-04-26T00:15:39.456Z,66.71
2019-04-26T00:18:06.960Z,67.67
2019-04-26T00:20:34.180Z,68.22
2019-04-26T00:23:01.473Z,68.05
2019-04-26T00:25:28.766Z,67.97
2019-04-26T00:27:55.977Z,67.87
2019-04-26T00:30:23.316Z,67.75
2019-04-26T00:32:50.539Z,67.97
2019-04-26T00:35:17.865Z,67.83
2019-04-26T00:37:45.521Z,67.56
2019-04-26T00:40:14.217Z,67.54
2019-04-26T00:42:42.483Z,67.45
2019-04-26T00:45:10.000Z,67.33
2019-04-26T00:47:38.058Z,67.17
2019-04-26T00:50:07.319Z,67.17
2019-04-26T00:52:35.373Z,67.11
2019-04-26T00:55:03.292Z,67.05
2019-04-26T00:57:31.997Z,66.95
2019-04-26T00:59:59.967Z,66.89
2019-04-26T01:02:35.698Z,66.89
2019-04-26T01:05:03.109Z,66.93
2019-04-26T01:07:30.453Z,67.03
2019-04-26T01:09:57.726Z,67.22
2019-04-26T01:12:26.021Z,67.40
2019-04-26T01:14:53.461Z,67.46
2019-04-26T01:17:20.702Z,67.41
2019-04-26T01:19:48.736Z,67.45
2019-04-26T01:22:23.285Z,67.71
2019-04-26T01:24:53.878Z,67.76
2019-04-26T01:27:25.520Z,67.75
2019-04-26T01:29:56.790Z,67.80
2019-04-26T01:32:26.271Z,67.77
2019-04-26T01:34:54.784Z,67.63
2019-04-26T01:37:22.647Z,67.51
2019-04-26T01:39:56.088Z,67.47
2019-04-26T01:42:44.046Z,67.43
2019-04-26T01:45:21.773Z,67.38
2019-04-26T01:47:53.010Z,67.39
2019-04-26T01:50:23.542Z,67.40
2019-04-26T01:52:52.311Z,67.37
2019-04-26T01:55:21.521Z,67.42
2019-04-26T01:57:49.111Z,67.56
2019-04-26T02:00:26.056Z,67.69
2019-04-26T02:02:56.627Z,67.68
2019-04-26T02:05:25.914Z,67.73
2019-04-26T02:07:53.513Z,67.87
2019-04-26T02:10:24.111Z,68.02
2019-04-26T02:12:52.991Z,68.03
2019-04-26T02:15:24.109Z,68.08
2019-04-26T02:17:55.085Z,68.06
2019-04-26T02:21:02.311Z,68.16
2019-04-26T02:23:34.472Z,68.21
2019-04-26T02:26:19.899Z,68.35
2019-04-26T02:28:48.571Z,68.43
2019-04-26T02:31:16.021Z,68.52
2019-04-26T02:33:43.242Z,68.62
2019-04-26T02:36:10.501Z,68.78
2019-04-26T02:38:37.825Z,68.92
2019-04-26T02:41:05.241Z,69.06
2019-04-26T02:43:33.857Z,69.13
2019-04-26T02:46:19.692Z,69.25
2019-04-26T02:49:24.384Z,69.23
2019-04-26T02:52:24.625Z,69.17
2019-04-26T02:55:14.304Z,69.12
2019-04-26T02:57:52.129Z,69.03
2019-04-26T03:00:20.545Z,68.99
2019-04-26T03:03:03.136Z,68.90
2019-04-26T03:05:35.496Z,68.80
2019-04-26T03:08:08.191Z,68.76
2019-04-26T03:10:41.332Z,68.72
2019-04-26T03:13:19.205Z,68.74
2019-04-26T03:16:04.099Z,68.79
2019-04-26T03:18:46.472Z,68.75
2019-04-26T03:21:31.999Z,68.69
2019-04-26T03:24:06.397Z,68.70
2019-04-26T03:26:55.276Z,68.66
2019-04-26T03:30:18.579Z,68.50
2019-04-26T03:32:58.534Z,68.41
2019-04-26T03:35:57.840Z,68.16
2019-04-26T03:38:43.575Z,68.65
2019-04-26T03:41:24.003Z,68.74
2019-04-26T03:44:10.131Z,68.59
2019-04-26T03:46:59.877Z,68.56
2019-04-26T03:50:06.035Z,68.54
2019-04-26T03:52:52.094Z,68.42
2019-04-26T03:55:55.684Z,68.27
2019-04-26T03:58:32.666Z,68.18
2019-04-26T04:01:07.295Z,68.11
2019-04-26T04:03:49.226Z,68.16
2019-04-26T04:06:24.229Z,68.15
2019-04-26T04:09:01.319Z,68.12
2019-04-26T04:12:10.011Z,68.20
2019-04-26T04:15:04.636Z,68.39
2019-04-26T04:17:48.258Z,68.47
2019-04-26T04:20:54.531Z,68.47
2019-04-26T04:24:09.770Z,68.44
2019-04-26T04:27:09.690Z,68.46
2019-04-26T04:29:51.057Z,68.47
2019-04-26T04:32:39.671Z,68.40
2019-04-26T04:35:11.080Z,68.47
2019-04-26T04:38:08.527Z,68.68
2019-04-26T04:40:49.003Z,68.97
2019-04-26T04:43:36.246Z,69.28
2019-04-26T04:46:58.514Z,69.49
2019-04-26T04:49:53.311Z,69.69
2019-04-26T04:52:39.355Z,70.06
2019-04-26T04:55:13.834Z,70.09
2019-04-26T04:58:11.589Z,70.38
2019-04-26T05:01:48.715Z,70.55
2019-04-26T05:04:31.293Z,70.57
2019-04-26T05:07:39.151Z,71.00
2019-04-26T05:10:23.859Z,71.30
2019-04-26T05:13:21.521Z,71.08
2019-04-26T05:16:27.951Z,71.29
2019-04-26T05:19:25.904Z,71.67
2019-04-26T05:22:30.518Z,71.74
2019-04-26T05:25:43.612Z,71.62
2019-04-26T05:28:23.755Z,71.82
2019-04-26T05:31:16.948Z,71.79
2019-04-26T05:34:24.911Z,71.69
2019-04-26T05:37:19.760Z,71.77
2019-04-26T05:39:59.985Z,71.71
2019-04-26T05:43:27.283Z,71.72
2019-04-26T05:46:30.162Z,71.67
2019-04-26T05:49:27.932Z,71.57
2019-04-26T05:52:34.312Z,71.44
2019-04-26T05:55:56.053Z,71.25
2019-04-26T05:58:43.863Z,71.07
2019-04-26T06:02:10.276Z,71.62
2019-04-26T06:04:59.273Z,72.48
2019-04-26T06:07:58.545Z,71.91
2019-04-26T06:10:47.129Z,71.78
2019-04-26T06:13:52.328Z,71.55
2019-04-26T06:16:59.322Z,71.33
2019-04-26T06:19:51.943Z,71.29
2019-04-26T06:22:34.737Z,71.14
2019-04-26T06:25:30.312Z,70.96
2019-04-26T06:28:02.823Z,70.93
2019-04-26T06:30:57.313Z,71.29
2019-04-26T06:33:32.539Z,71.74
2019-04-26T06:36:05.641Z,72.58
2019-04-26T06:39:20.107Z,72.12
2019-04-26T06:42:23.050Z,72.04
2019-04-26T06:45:48.357Z,71.99
2019-04-26T06:48:27.795Z,71.89
2019-04-26T06:51:04.908Z,71.68
2019-04-26T06:53:45.027Z,71.62
2019-04-26T06:56:42.229Z,71.55
2019-04-26T06:59:39.668Z,71.62
2019-04-26T07:02:20.109Z,71.66
2019-04-26T07:05:15.342Z,71.89
2019-04-26T07:08:06.720Z,72.01
2019-04-26T07:11:36.673Z,72.46
2019-04-26T07:14:25.319Z,72.50
2019-04-26T07:17:19.810Z,72.44
2019-04-26T07:20:40.077Z,72.37
2019-04-26T07:23:42.548Z,72.52
2019-04-26T07:26:45.465Z,72.73
2019-04-26T07:30:01.632Z,72.87
2019-04-26T07:33:25.488Z,73.14
2019-04-26T07:36:31.348Z,73.39
2019-04-26T07:39:50.070Z,73.41
2019-04-26T07:43:03.269Z,73.44
2019-04-26T07:45:59.319Z,73.12
2019-04-26T07:48:48.023Z,72.65
2019-04-26T07:51:58.963Z,72.48
2019-04-26T07:54:58.615Z,72.38
2019-04-26T07:57:46.675Z,72.73
2019-04-26T08:00:31.173Z,72.63
2019-04-26T08:03:12.812Z,72.48
2019-04-26T08:06:06.130Z,72.37
2019-04-26T08:08:43.670Z,72.26
2019-04-26T08:11:19.251Z,72.05
2019-04-26T08:14:06.584Z,71.97
2019-04-26T08:16:49.733Z,71.80
2019-04-26T08:19:21.333Z,71.96
2019-04-26T08:21:50.631Z,72.26
2019-04-26T08:24:22.734Z,72.30
2019-04-26T08:27:13.628Z,72.18
2019-04-26T08:29:38.700Z,72.20
2019-04-26T08:32:13.287Z,72.25
2019-04-26T08:34:44.565Z,72.19
2019-04-26T08:37:22.685Z,72.16
2019-04-26T08:39:52.105Z,72.37
2019-04-26T08:42:24.916Z,72.60
2019-04-26T08:45:13.743Z,72.40
2019-04-26T08:47:53.599Z,72.33
2019-04-26T08:50:35.535Z,72.63
2019-04-26T08:53:04.266Z,72.61
2019-04-26T08:55:34.314Z,72.59
2019-04-26T08:58:07.272Z,72.31
2019-04-26T09:00:48.014Z,72.15
2019-04-26T09:07:08.385Z,71.90
2019-04-26T09:09:39.557Z,71.84
2019-04-26T09:12:22.815Z,72.02
2019-04-26T09:17:21.810Z,71.83
2019-04-26T09:19:49.292Z,71.55
2019-04-26T09:22:47.869Z,71.59
2019-04-26T09:25:22.742Z,71.61
2019-04-26T09:28:09.764Z,71.62
2019-04-26T09:30:47.652Z,70.99
2019-04-26T09:33:39.615Z,71.25
2019-04-26T09:36:07.167Z,70.88
2019-04-26T09:38:34.423Z,70.58
2019-04-26T09:41:01.675Z,70.24
2019-04-26T09:43:43.734Z,70.54
2019-04-26T09:46:29.367Z,70.76
2019-04-26T09:49:21.700Z,70.11
2019-04-26T09:51:49.618Z,70.30
2019-04-26T11:08:31.136Z,64.40
2019-04-26T11:10:58.601Z,63.96
2019-04-26T11:13:25.819Z,64.54
2019-04-26T11:15:53.113Z,63.81
2019-04-26T11:18:27.323Z,63.77
2019-04-26T11:20:49.540Z,62.98
2019-04-26T11:23:16.818Z,63.00
2019-04-26T11:25:44.074Z,62.78
2019-04-26T11:28:11.302Z,63.20
2019-04-26T11:30:38.525Z,61.91
2019-04-26T11:33:07.348Z,61.57
2019-04-26T11:35:34.983Z,61.59
2019-04-26T11:38:02.500Z,61.90
2019-04-26T11:40:29.792Z,61.35
2019-04-26T11:42:57.163Z,61.32
2019-04-26T11:45:24.406Z,60.96
2019-04-26T11:47:56.172Z,60.69
2019-04-26T11:50:20.868Z,60.94
2019-04-26T11:52:48.099Z,61.03
2019-04-26T11:55:15.455Z,60.99
2019-04-26T11:57:43.768Z,60.58
2019-04-26T12:00:19.443Z,60.66
2019-04-26T12:02:50.764Z,60.99
2019-04-26T12:05:50.414Z,60.50
2019-04-26T12:08:22.826Z,60.58
2019-04-26T12:10:50.170Z,60.49
2019-04-26T12:13:17.504Z,59.30
2019-04-26T12:15:45.395Z,58.16
2019-04-26T12:18:12.750Z,58.66
2019-04-26T12:20:40.103Z,57.72
2019-04-26T12:23:07.425Z,57.56
2019-04-26T12:25:34.683Z,58.01
2019-04-26T12:28:05.748Z,57.65
2019-04-26T12:30:31.094Z,57.25
2019-04-26T12:32:58.357Z,56.44
2019-04-26T12:35:25.636Z,55.94
2019-04-26T12:37:54.712Z,56.23
2019-04-26T12:40:22.013Z,56.12
2019-04-26T12:42:49.319Z,56.82
2019-04-26T12:45:36.198Z,57.29
2019-04-26T12:48:08.018Z,57.54
2019-04-26T12:50:37.626Z,57.34
2019-04-26T12:53:04.158Z,56.82
2019-04-26T12:55:31.713Z,56.37
2019-04-26T12:57:58.983Z,56.36
2019-04-26T13:00:32.969Z,56.56
2019-04-26T13:02:59.628Z,57.04
2019-04-26T13:05:26.908Z,57.05
2019-04-26T13:07:54.277Z,56.95
2019-04-26T13:10:53.370Z,56.83
2019-04-26T13:13:43.030Z,56.63
2019-04-26T13:16:21.529Z,57.07
2019-04-26T13:18:49.807Z,57.23
2019-04-26T13:21:17.122Z,57.45
2019-04-26T13:23:44.346Z,57.05
2019-04-26T13:26:11.581Z,56.98
2019-04-26T13:28:38.856Z,57.38
2019-04-26T13:31:06.114Z,57.08
2019-04-26T13:33:33.352Z,56.72
2019-04-26T13:36:03.713Z,56.76
2019-04-26T13:38:29.869Z,56.72
2019-04-26T13:40:59.594Z,57.48
2019-04-26T13:43:28.472Z,57.28
2019-04-26T13:46:13.638Z,56.96
2019-04-26T13:48:54.954Z,57.12
2019-04-26T13:51:22.490Z,57.60
2019-04-26T13:53:49.716Z,57.25
2019-04-26T13:56:16.991Z,57.71
2019-04-26T13:58:44.217Z,56.59
2019-04-26T14:01:14.524Z,56.40
2019-04-26T14:03:41.242Z,57.05
2019-04-26T14:06:08.578Z,57.35
2019-04-26T14:08:35.880Z,57.01
2019-04-26T14:11:03.393Z,56.68
2019-04-26T14:13:30.627Z,56.42
2019-04-26T14:15:57.880Z,56.48
2019-04-26T14:18:25.092Z,56.59
2019-04-26T14:20:54.932Z,56.81
2019-04-26T14:23:51.122Z,56.51
2019-04-26T14:26:25.949Z,55.98
2019-04-26T14:28:54.263Z,55.78
2019-04-26T14:31:22.350Z,55.96
2019-04-26T14:33:49.592Z,55.49
2019-04-26T14:36:18.289Z,55.93
2019-04-26T14:38:45.902Z,55.12
2019-04-26T14:41:13.936Z,56.87
2019-04-26T14:43:42.349Z,55.97
2019-04-26T14:46:10.398Z,55.90
2019-04-26T14:48:40.617Z,55.57
2019-04-26T14:51:08.675Z,54.29
2019-04-26T14:53:38.082Z,54.91
2019-04-26T14:56:05.324Z,54.67
2019-04-26T14:58:33.742Z,54.94
2019-04-26T15:01:03.308Z,54.99
2019-04-26T15:03:58.303Z,54.63
2019-04-26T15:06:28.957Z,54.78
2019-04-26T15:08:56.293Z,55.38
2019-04-26T15:11:23.529Z,54.74
2019-04-26T15:13:51.772Z,55.03
2019-04-26T15:16:22.021Z,54.93
2019-04-26T15:18:48.181Z,55.00
2019-04-26T15:21:15.780Z,54.88
2019-04-26T15:23:43.004Z,54.77
2019-04-26T15:26:10.266Z,54.38
2019-04-26T15:28:37.467Z,54.95
2019-04-26T15:31:04.817Z,55.77
2019-04-26T15:33:32.774Z,56.06
2019-04-26T15:36:02.259Z,56.46
2019-04-26T15:38:34.835Z,56.52
2019-04-26T15:41:22.286Z,56.17
2019-04-26T15:44:11.519Z,55.97
2019-04-26T15:46:56.993Z,55.90
2019-04-26T15:49:43.770Z,56.64
2019-04-26T15:52:11.070Z,55.84
2019-04-26T15:54:38.356Z,56.04
2019-04-26T15:57:06.559Z,55.38
2019-04-26T15:59:34.994Z,55.76
2019-04-26T16:02:02.548Z,55.40
2019-04-26T16:04:30.119Z,55.92
2019-04-26T16:06:57.468Z,55.49
2019-04-26T16:09:24.700Z,55.48
2019-04-26T16:23:41.143Z,54.27
2019-04-26T16:26:02.858Z,53.26
2019-04-26T16:29:04.677Z,53.08
2019-04-26T16:32:06.366Z,52.92
2019-04-26T16:34:34.228Z,53.27
2019-04-26T16:37:02.973Z,52.99
2019-04-26T16:39:37.990Z,53.72
2019-04-26T16:42:05.140Z,53.73
2019-04-26T16:44:31.295Z,52.89
2019-04-26T16:47:01.458Z,53.09
2019-04-26T16:49:27.286Z,53.63
2019-04-26T16:52:02.144Z,53.83
2019-04-26T16:54:26.763Z,53.75
2019-04-26T16:56:52.817Z,54.30
2019-04-26T16:59:23.971Z,54.47
2019-04-26T17:01:49.201Z,54.51
2019-04-26T17:04:19.959Z,54.15
2019-04-26T17:06:46.465Z,54.06
2019-04-26T17:09:14.482Z,54.09
2019-04-26T17:11:43.394Z,54.39
2019-04-26T17:14:11.234Z,54.44
2019-04-26T17:16:39.116Z,55.02
2019-04-26T17:19:06.309Z,55.03
2019-04-26T17:21:39.657Z,54.91
2019-04-26T17:24:26.435Z,53.78
2019-04-26T17:26:57.594Z,53.55
2019-04-26T17:29:24.813Z,53.20
2019-04-26T17:31:52.282Z,53.69
2019-04-26T17:34:22.529Z,53.84
2019-04-26T17:36:50.550Z,54.06
2019-04-26T17:39:18.498Z,54.06
2019-04-26T17:41:50.586Z,54.06
2019-04-26T17:44:14.906Z,53.79
2019-04-26T17:46:42.081Z,53.91
2019-04-26T17:49:11.078Z,53.84
2019-04-26T17:51:42.463Z,54.17
2019-04-26T17:54:32.300Z,54.28
2019-04-26T17:56:39.620Z,53.82
2019-04-26T17:59:09.224Z,53.96
2019-04-26T18:01:45.333Z,53.84
2019-04-26T18:04:04.227Z,54.25
2019-04-26T18:06:31.444Z,54.73
2019-04-26T18:08:58.684Z,54.82
2019-04-26T18:11:25.861Z,54.73
2019-04-26T18:13:53.048Z,54.41
2019-04-26T18:16:22.026Z,54.42
2019-04-26T18:19:08.808Z,54.62
2019-04-26T18:21:49.613Z,54.40
2019-04-26T18:24:16.337Z,54.53
2019-04-26T18:26:43.669Z,54.39
2019-04-26T18:29:10.892Z,54.41
2019-04-26T18:31:38.324Z,54.46
2019-04-26T18:34:05.547Z,54.59
2019-04-26T18:36:33.273Z,54.76
2019-04-26T18:39:00.816Z,54.71
2019-04-26T18:41:28.914Z,54.87
2019-04-26T18:43:59.792Z,55.25
2019-04-26T18:46:35.781Z,55.34
2019-04-26T18:49:01.494Z,55.47
2019-04-26T18:51:28.699Z,55.48
2019-04-26T18:54:30.770Z,55.54
2019-04-26T18:56:59.574Z,55.35
2019-04-26T18:59:27.977Z,55.49
2019-04-26T19:01:55.305Z,55.66
2019-04-26T19:04:23.651Z,55.61
2019-04-26T19:06:52.350Z,55.61
2019-04-26T19:09:21.373Z,55.66
2019-04-26T19:11:49.827Z,55.95
2019-04-26T19:14:49.713Z,56.17
2019-04-26T19:17:33.849Z,56.49
2019-04-26T19:20:29.899Z,56.68
2019-04-26T19:22:58.832Z,56.83
2019-04-26T19:25:29.894Z,57.18
2019-04-26T19:27:58.970Z,57.44
2019-04-26T19:30:24.559Z,57.57
2019-04-26T19:32:53.866Z,57.57
2019-04-26T19:35:21.944Z,57.50
2019-04-26T19:37:49.324Z,57.56
2019-04-26T19:40:16.516Z,57.71
2019-04-26T19:42:43.716Z,57.84
2019-04-26T19:45:19.327Z,57.88
2019-04-26T19:47:53.984Z,57.98
2019-04-26T19:50:31.033Z,58.03
2019-04-26T19:53:02.544Z,58.12
2019-04-26T19:55:56.660Z,58.16
2019-04-26T19:58:26.415Z,58.27
2019-04-26T20:00:53.683Z,58.60
2019-04-26T20:03:20.899Z,58.77
2019-04-26T20:05:48.064Z,58.89
2019-04-26T20:08:15.258Z,58.88
2019-04-26T20:10:45.358Z,58.90
2019-04-26T20:13:15.157Z,59.11
2019-04-26T20:15:42.250Z,59.23
2019-04-26T20:18:09.577Z,59.35
2019-04-26T20:20:36.751Z,59.61
2019-04-26T20:23:07.713Z,59.80
2019-04-26T20:25:33.054Z,59.91
2019-04-26T20:28:01.509Z,60.00
2019-04-26T20:30:51.819Z,60.15
2019-04-26T20:33:19.054Z,60.28
2019-04-26T20:35:46.238Z,60.38
2019-04-26T20:38:13.486Z,60.52
2019-04-26T20:40:43.434Z,60.63
2019-04-26T20:43:21.731Z,60.66
2019-04-26T20:45:41.963Z,60.69
2019-04-26T20:48:08.017Z,60.75
2019-04-26T20:50:36.880Z,60.82
2019-04-26T20:53:04.276Z,60.74
2019-04-26T20:55:34.466Z,60.69
2019-04-26T20:58:07.089Z,60.71
2019-04-26T21:00:31.607Z,60.68
2019-04-26T21:03:01.326Z,60.66
2019-04-26T21:05:28.052Z,60.61
2019-04-26T21:07:55.533Z,60.73
2019-04-26T21:10:25.649Z,60.83
2019-04-26T21:12:54.830Z,60.85
2019-04-26T21:15:24.075Z,60.87
2019-04-26T21:17:51.778Z,60.82
2019-04-26T21:20:19.228Z,60.76
2019-04-26T21:22:46.426Z,60.76
2019-04-26T21:25:36.097Z,60.74
2019-04-26T21:28:24.927Z,60.79
2019-04-26T21:31:07.532Z,60.81
2019-04-26T21:33:40.217Z,60.79
2019-04-26T21:36:17.390Z,60.81
2019-04-26T21:38:52.991Z,60.86
2019-04-26T21:41:23.589Z,60.89
2019-04-26T21:43:50.973Z,60.96
2019-04-26T21:46:19.135Z,61.02
2019-04-26T21:48:47.340Z,61.09
2019-04-26T21:51:16.137Z,61.13
2019-04-26T21:53:45.169Z,61.04
2019-04-26T21:56:14.561Z,60.99
2019-04-26T21:58:43.628Z,60.98
2019-04-26T22:01:19.150Z,60.99
2019-04-26T22:03:53.751Z,61.14
2019-04-26T22:06:19.746Z,61.20
2019-04-26T22:08:55.676Z,61.29
2019-04-26T22:11:23.283Z,61.39
2019-04-26T22:14:13.229Z,61.34
2019-04-26T22:17:04.523Z,61.29
2019-04-26T22:19:43.781Z,61.33
2019-04-26T22:22:18.072Z,61.45
2019-04-26T22:24:45.381Z,61.52
2019-04-26T22:27:13.270Z,61.55
2019-04-26T22:29:40.518Z,61.61
2019-04-26T22:32:11.541Z,61.65
2019-04-26T22:34:40.959Z,61.68
2019-04-26T22:37:11.320Z,61.70
2019-04-26T22:39:39.841Z,61.81
2019-04-26T22:42:05.293Z,61.96
2019-04-26T22:44:47.004Z,61.92
2019-04-26T22:47:42.836Z,61.92
2019-04-26T22:50:14.070Z,61.95
2019-04-26T22:52:39.223Z,60.98
2019-04-26T22:55:06.856Z,62.15
2019-04-26T22:57:34.093Z,62.14
2019-04-26T23:00:01.281Z,62.21
2019-04-26T23:02:28.466Z,62.27
2019-04-26T23:04:59.983Z,62.33
2019-04-26T23:07:26.248Z,62.51
2019-04-26T23:09:55.524Z,62.68
2019-04-26T23:12:45.525Z,62.80
2019-04-26T23:15:43.233Z,62.86
2019-04-26T23:18:18.864Z,63.21
2019-04-26T23:21:03.445Z,63.68
2019-04-26T23:23:30.804Z,63.68
2019-04-26T23:25:57.996Z,63.58
2019-04-26T23:28:27.771Z,63.58
2019-04-26T23:30:54.392Z,63.59
2019-04-26T23:33:21.607Z,63.57
2019-04-26T23:35:48.880Z,63.57
2019-04-26T23:38:16.128Z,63.57
2019-04-26T23:40:43.332Z,63.54
2019-04-26T23:43:10.529Z,63.57
2019-04-26T23:45:43.589Z,63.53
2019-04-26T23:48:07.731Z,63.67
2019-04-26T23:50:36.117Z,63.98
2019-04-26T23:53:03.315Z,64.26
2019-04-26T23:55:30.561Z,64.49
2019-04-26T23:57:57.757Z,64.49
